createdAt,value
2023-02-26T00:01:30.330Z,6.30
2023-02-26T00:04:02.627Z,6.70
2023-02-26T00:06:38.744Z,7.30
2023-02-26T00:09:07.371Z,6.70
2023-02-26T00:11:36.423Z,7.00
2023-02-26T00:14:11.259Z,6.70
2023-02-26T00:16:41.221Z,6.20
2023-02-26T00:19:10.778Z,6.30
2023-02-26T00:21:39.979Z,7.40
2023-02-26T00:24:08.460Z,4.40
2023-02-26T00:26:38.478Z,7.60
2023-02-26T00:29:07.642Z,6.90
2023-02-26T00:31:45.906Z,7.30
2023-02-26T00:34:15.197Z,7.50
2023-02-26T00:37:07.328Z,6.80
2023-02-26T00:39:46.559Z,6.30
2023-02-26T00:42:15.705Z,7.80
2023-02-26T00:44:44.585Z,6.00
2023-02-26T00:47:40.892Z,4.30
2023-02-26T00:50:25.962Z,7.10
2023-02-26T00:52:57.408Z,7.00
2023-02-26T00:55:27.238Z,10.10
2023-02-26T00:57:58.000Z,6.40
2023-02-26T01:00:26.542Z,7.00
2023-02-26T01:02:55.402Z,6.60
2023-02-26T01:05:24.748Z,4.60
2023-02-26T01:08:27.009Z,6.60
2023-02-26T01:10:55.731Z,5.20
2023-02-26T01:13:24.388Z,7.40
2023-02-26T01:16:03.042Z,6.30
2023-02-26T01:18:44.013Z,5.80
2023-02-26T01:21:17.273Z,6.60
2023-02-26T01:23:47.817Z,5.40
2023-02-26T01:26:20.893Z,5.40
2023-02-26T01:28:49.886Z,6.40
2023-02-26T01:31:36.841Z,5.90
2023-02-26T01:34:43.583Z,5.70
2023-02-26T01:37:26.918Z,6.30
2023-02-26T01:40:20.000Z,6.40
2023-02-26T01:42:51.681Z,6.40
2023-02-26T01:45:30.375Z,7.00
2023-02-26T01:48:07.043Z,6.70
2023-02-26T01:50:36.266Z,6.10
2023-02-26T01:53:25.799Z,6.00
2023-02-26T01:56:06.652Z,5.40
2023-02-26T01:58:35.713Z,6.70
2023-02-26T02:01:04.675Z,5.00
2023-02-26T02:03:35.257Z,4.90
2023-02-26T02:06:08.993Z,6.10
2023-02-26T02:08:40.136Z,5.70
2023-02-26T02:11:10.105Z,4.50
2023-02-26T02:13:43.672Z,5.60
2023-02-26T02:16:23.701Z,5.20
2023-02-26T02:19:01.224Z,4.70
2023-02-26T02:22:09.223Z,5.90
2023-02-26T02:25:26.759Z,6.70
2023-02-26T02:28:33.539Z,6.20
2023-02-26T02:31:36.337Z,4.80
2023-02-26T02:34:11.876Z,5.20
2023-02-26T02:36:47.630Z,6.20
2023-02-26T02:39:22.261Z,6.30
2023-02-26T02:41:57.803Z,4.50
2023-02-26T02:44:26.799Z,5.20
2023-02-26T02:49:42.002Z,4.30
2023-02-26T02:52:21.054Z,6.30
2023-02-26T02:55:13.577Z,4.60
2023-02-26T02:58:13.286Z,5.60
2023-02-26T03:00:44.667Z,5.50
2023-02-26T03:03:17.943Z,4.40
2023-02-26T03:05:46.568Z,4.30
2023-02-26T03:08:17.459Z,6.10
2023-02-26T03:10:51.172Z,6.50
2023-02-26T03:13:21.900Z,5.20
2023-02-26T03:16:08.667Z,5.90
2023-02-26T03:18:52.766Z,7.20
2023-02-26T03:21:50.750Z,5.00
2023-02-26T03:24:41.039Z,6.10
2023-02-26T03:27:24.265Z,6.00
2023-02-26T03:29:57.873Z,5.00
2023-02-26T03:32:44.043Z,5.00
2023-02-26T03:35:19.104Z,6.80
2023-02-26T03:37:52.209Z,5.70
2023-02-26T03:40:36.079Z,4.40
2023-02-26T03:43:19.370Z,7.70
2023-02-26T03:45:54.418Z,6.50
2023-02-26T03:50:54.340Z,3.30
2023-02-26T03:54:06.345Z,5.10
2023-02-26T03:56:44.659Z,5.80
2023-02-26T03:59:51.453Z,5.40
2023-02-26T04:02:51.788Z,7.80
2023-02-26T04:05:23.532Z,6.30
2023-02-26T04:07:52.320Z,4.80
2023-02-26T04:10:29.917Z,6.40
2023-02-26T04:13:01.131Z,6.30
2023-02-26T04:15:29.852Z,5.90
2023-02-26T04:17:58.548Z,4.90
2023-02-26T04:20:27.023Z,4.90
2023-02-26T04:22:55.816Z,5.50
2023-02-26T04:25:24.708Z,6.40
2023-02-26T04:27:53.394Z,5.80
2023-02-26T04:30:22.614Z,6.40
2023-02-26T04:32:51.075Z,6.10
2023-02-26T04:35:19.559Z,5.70
2023-02-26T04:37:48.556Z,5.90
2023-02-26T04:40:17.445Z,5.60
2023-02-26T04:42:47.538Z,6.80
2023-02-26T04:45:19.838Z,7.10
2023-02-26T04:47:49.449Z,5.50
2023-02-26T04:50:18.148Z,5.60
2023-02-26T04:52:48.872Z,5.40
2023-02-26T04:55:17.766Z,7.10
2023-02-26T04:57:46.453Z,5.10
2023-02-26T05:00:15.854Z,5.10
2023-02-26T05:02:44.101Z,4.80
2023-02-26T05:05:12.515Z,6.00
2023-02-26T05:07:46.429Z,7.20
2023-02-26T05:10:17.268Z,5.40
2023-02-26T05:12:46.470Z,4.30
2023-02-26T05:15:16.594Z,7.60
2023-02-26T05:17:45.403Z,7.20
2023-02-26T05:20:15.709Z,5.30
2023-02-26T05:22:50.334Z,7.40
2023-02-26T05:25:19.328Z,5.80
2023-02-26T05:27:47.711Z,6.40
2023-02-26T05:30:16.707Z,8.00
2023-02-26T05:32:45.601Z,8.00
2023-02-26T05:35:14.898Z,6.80
2023-02-26T05:37:44.406Z,7.70
2023-02-26T05:40:13.443Z,5.80
2023-02-26T05:42:42.393Z,7.10
2023-02-26T05:47:41.314Z,5.30
2023-02-26T05:50:10.746Z,7.00
2023-02-26T05:52:39.301Z,7.70
2023-02-26T05:55:10.666Z,5.90
2023-02-26T05:57:40.559Z,5.80
2023-02-26T06:00:09.857Z,5.90
2023-02-26T06:02:42.311Z,7.40
2023-02-26T06:05:10.823Z,6.50
2023-02-26T06:07:41.967Z,6.80
2023-02-26T06:10:11.297Z,6.50
2023-02-26T06:12:41.198Z,6.10
2023-02-26T06:15:10.999Z,6.50
2023-02-26T06:17:41.174Z,6.90
2023-02-26T06:20:10.946Z,6.30
2023-02-26T06:22:39.626Z,7.90
2023-02-26T06:25:08.753Z,7.00
2023-02-26T06:27:37.207Z,6.40
2023-02-26T06:30:06.548Z,7.30
2023-02-26T06:32:35.867Z,7.50
2023-02-26T06:35:06.546Z,8.20
2023-02-26T06:37:41.486Z,7.20
2023-02-26T06:40:12.124Z,6.60
2023-02-26T06:45:09.460Z,8.00
2023-02-26T06:47:37.777Z,6.30
2023-02-26T06:50:07.084Z,7.40
2023-02-26T06:52:36.684Z,7.90
2023-02-26T06:55:05.788Z,8.30
2023-02-26T06:57:33.991Z,7.30
2023-02-26T07:00:02.807Z,8.50
2023-02-26T07:02:31.785Z,8.80
2023-02-26T07:05:05.680Z,8.20
2023-02-26T07:07:34.135Z,6.90
2023-02-26T07:10:02.516Z,7.20
2023-02-26T07:12:31.217Z,7.00
2023-02-26T07:14:59.583Z,8.00
2023-02-26T07:17:34.451Z,8.90
2023-02-26T07:20:06.710Z,9.40
2023-02-26T07:22:35.280Z,7.80
2023-02-26T07:25:05.101Z,7.20
2023-02-26T07:27:33.907Z,7.50
2023-02-26T07:30:02.466Z,8.60
2023-02-26T07:32:31.050Z,8.20
2023-02-26T07:34:59.324Z,9.00
2023-02-26T07:37:29.257Z,8.70
2023-02-26T07:39:57.518Z,9.70
2023-02-26T07:42:26.001Z,9.60
2023-02-26T07:44:55.104Z,10.40
2023-02-26T07:47:23.510Z,9.70
2023-02-26T07:49:52.198Z,12.70
2023-02-26T07:52:23.099Z,11.20
2023-02-26T07:54:51.391Z,9.50
2023-02-26T07:57:20.608Z,11.80
2023-02-26T07:59:48.967Z,13.20
2023-02-26T08:02:17.650Z,11.60
2023-02-26T08:04:46.135Z,12.50
2023-02-26T08:07:14.719Z,10.60
2023-02-26T08:09:44.532Z,9.90
2023-02-26T08:12:13.020Z,9.00
2023-02-26T08:14:43.154Z,10.10
2023-02-26T08:17:11.939Z,9.50
2023-02-26T08:19:40.409Z,9.40
2023-02-26T08:22:08.891Z,9.40
2023-02-26T08:24:37.998Z,7.70
2023-02-26T08:27:07.494Z,8.00
2023-02-26T08:29:40.092Z,9.40
2023-02-26T08:32:09.635Z,9.60
2023-02-26T08:34:39.191Z,7.90
2023-02-26T08:37:09.522Z,8.10
2023-02-26T08:39:39.260Z,8.40
2023-02-26T08:42:08.062Z,8.50
2023-02-26T08:44:38.446Z,9.10
2023-02-26T08:47:07.136Z,8.90
2023-02-26T08:49:36.130Z,8.70
2023-02-26T08:52:05.124Z,8.80
2023-02-26T08:54:34.119Z,6.30
2023-02-26T08:57:03.837Z,9.70
2023-02-26T08:59:32.212Z,9.20
2023-02-26T09:02:00.907Z,8.50
2023-02-26T09:04:31.200Z,9.60
2023-02-26T09:06:59.913Z,8.80
2023-02-26T09:09:32.395Z,9.40
2023-02-26T09:12:01.587Z,5.50
2023-02-26T09:14:30.081Z,7.40
2023-02-26T09:17:04.798Z,8.90
2023-02-26T09:19:33.177Z,9.10
2023-02-26T09:22:01.659Z,8.10
2023-02-26T09:24:30.781Z,7.90
2023-02-26T09:26:59.146Z,6.60
2023-02-26T09:29:27.514Z,8.20
2023-02-26T09:31:56.045Z,7.00
2023-02-26T09:34:24.810Z,8.50
2023-02-26T09:36:53.195Z,7.50
2023-02-26T09:39:21.765Z,8.30
2023-02-26T09:41:52.531Z,6.90
2023-02-26T09:44:24.860Z,8.30
2023-02-26T09:47:03.289Z,7.10
2023-02-26T09:49:44.154Z,8.10
2023-02-26T09:52:21.852Z,7.30
2023-02-26T09:54:53.519Z,6.40
2023-02-26T09:57:33.364Z,8.10
2023-02-26T10:00:02.144Z,7.00
2023-02-26T10:03:10.233Z,9.30
2023-02-26T10:05:45.506Z,14.40
2023-02-26T10:08:18.420Z,12.00
2023-02-26T10:10:51.574Z,10.40
2023-02-26T10:13:57.603Z,11.70
2023-02-26T10:16:32.609Z,7.50
2023-02-26T10:19:07.262Z,8.30
2023-02-26T10:22:06.234Z,8.40
2023-02-26T10:24:43.665Z,8.60
2023-02-26T10:27:16.678Z,8.50
2023-02-26T10:29:49.967Z,7.80
2023-02-26T10:32:35.484Z,6.70
2023-02-26T10:35:09.358Z,7.50
2023-02-26T10:37:59.661Z,7.10
2023-02-26T10:40:42.661Z,7.90
2023-02-26T10:43:15.162Z,7.80
2023-02-26T10:45:58.023Z,6.80
2023-02-26T10:48:49.079Z,7.10
2023-02-26T10:51:28.244Z,8.20
2023-02-26T10:54:21.882Z,7.30
2023-02-26T10:56:50.264Z,7.80
2023-02-26T10:59:21.641Z,7.60
2023-02-26T11:01:51.246Z,7.70
2023-02-26T11:04:23.554Z,7.10
2023-02-26T11:07:03.298Z,6.00
2023-02-26T11:09:39.612Z,7.20
2023-02-26T11:12:15.276Z,6.70
2023-02-26T11:14:47.534Z,7.20
2023-02-26T11:17:28.217Z,6.80
2023-02-26T11:20:02.740Z,7.10
2023-02-26T11:22:33.482Z,7.30
2023-02-26T11:25:04.507Z,7.10
2023-02-26T11:27:36.264Z,7.90
2023-02-26T11:30:15.471Z,6.60
2023-02-26T11:32:45.890Z,7.00
2023-02-26T11:35:15.445Z,7.40
2023-02-26T11:37:48.235Z,7.00
2023-02-26T11:40:19.048Z,8.20
2023-02-26T11:42:51.624Z,7.60
2023-02-26T11:45:20.624Z,15.30
2023-02-26T11:49:00.710Z,5.70
2023-02-26T11:51:29.604Z,6.80
2023-02-26T11:54:02.206Z,6.30
2023-02-26T11:56:39.444Z,6.20
2023-02-26T11:59:16.928Z,7.80
2023-02-26T12:01:45.717Z,10.70
2023-02-26T12:04:15.266Z,7.10
2023-02-26T12:06:44.320Z,11.80
2023-02-26T12:09:14.133Z,7.90
2023-02-26T12:11:52.238Z,8.80
2023-02-26T12:15:01.581Z,7.60
2023-02-26T12:17:40.914Z,15.70
2023-02-26T12:20:19.442Z,8.80
2023-02-26T12:23:06.242Z,11.10
2023-02-26T12:25:53.362Z,7.90
2023-02-26T12:28:48.685Z,13.10
2023-02-26T12:31:40.682Z,12.90
2023-02-26T12:34:24.750Z,10.40
2023-02-26T12:37:19.153Z,8.00
2023-02-26T12:39:56.293Z,7.80
2023-02-26T12:42:37.621Z,10.50
2023-02-26T12:45:11.845Z,7.70
2023-02-26T12:48:06.637Z,7.40
2023-02-26T12:51:04.332Z,15.60
2023-02-26T12:54:00.544Z,7.60
2023-02-26T12:56:33.627Z,7.20
2023-02-26T12:59:27.915Z,19.90
2023-02-26T13:02:09.747Z,11.30
2023-02-26T13:05:00.362Z,7.10
2023-02-26T13:07:59.118Z,8.70
2023-02-26T13:10:43.566Z,6.20
2023-02-26T13:13:50.247Z,5.90
2023-02-26T13:16:37.183Z,6.30
2023-02-26T13:19:17.109Z,6.20
2023-02-26T13:21:48.666Z,7.20
2023-02-26T13:24:25.394Z,6.30
2023-02-26T13:26:54.031Z,9.70
2023-02-26T13:29:27.921Z,7.10
2023-02-26T13:32:01.307Z,7.70
2023-02-26T13:34:51.221Z,6.80
2023-02-26T13:37:28.846Z,9.80
2023-02-26T13:40:01.708Z,9.20
2023-02-26T13:42:41.046Z,10.50
2023-02-26T13:45:22.526Z,7.70
2023-02-26T13:48:09.614Z,7.10
2023-02-26T13:50:44.200Z,7.70
2023-02-26T13:53:29.343Z,6.60
2023-02-26T13:56:16.673Z,5.80
2023-02-26T13:59:00.815Z,7.90
2023-02-26T14:01:33.445Z,6.90
2023-02-26T14:04:22.646Z,7.00
2023-02-26T14:06:59.450Z,8.00
2023-02-26T14:09:36.835Z,7.50
2023-02-26T14:12:18.555Z,21.30
2023-02-26T14:15:00.422Z,11.70
2023-02-26T14:17:39.859Z,7.90
2023-02-26T14:20:23.800Z,7.60
2023-02-26T14:23:10.012Z,11.00
2023-02-26T14:25:50.027Z,11.10
2023-02-26T14:28:33.686Z,7.60
2023-02-26T14:31:11.417Z,7.70
2023-02-26T14:33:45.710Z,7.20
2023-02-26T14:36:20.628Z,8.30
2023-02-26T14:38:49.327Z,8.60
2023-02-26T14:41:24.117Z,7.50
2023-02-26T14:44:01.463Z,7.80
2023-02-26T14:46:30.116Z,9.50
2023-02-26T14:48:58.624Z,9.80
2023-02-26T14:52:21.989Z,11.50
2023-02-26T14:55:12.393Z,9.60
2023-02-26T14:58:06.065Z,11.70
2023-02-26T15:00:46.013Z,11.10
2023-02-26T15:03:38.252Z,10.40
2023-02-26T15:06:07.969Z,13.50
2023-02-26T15:08:57.133Z,14.40
2023-02-26T15:11:35.755Z,21.70
2023-02-26T15:15:01.076Z,17.40
2023-02-26T15:17:41.326Z,13.50
2023-02-26T15:20:54.149Z,15.90
2023-02-26T15:23:37.889Z,42.60
2023-02-26T15:26:06.992Z,15.10
2023-02-26T15:28:42.422Z,12.00
2023-02-26T15:31:13.518Z,11.90
2023-02-26T15:33:42.373Z,10.70
2023-02-26T15:36:17.096Z,10.80
2023-02-26T15:38:49.995Z,39.40
2023-02-26T15:41:18.977Z,20.60
2023-02-26T15:43:52.906Z,17.70
2023-02-26T15:46:23.593Z,17.80
2023-02-26T15:48:52.718Z,18.50
2023-02-26T15:51:22.310Z,15.30
2023-02-26T15:53:51.831Z,17.30
2023-02-26T15:56:23.123Z,21.70
2023-02-26T15:58:55.140Z,14.40
2023-02-26T16:01:25.117Z,13.10
2023-02-26T16:03:56.904Z,20.20
2023-02-26T16:06:29.521Z,30.10
2023-02-26T16:09:01.058Z,16.10
2023-02-26T16:11:33.806Z,15.80
2023-02-26T16:14:02.801Z,14.40
2023-02-26T16:16:52.420Z,14.20
2023-02-26T16:19:29.497Z,15.60
2023-02-26T16:21:58.597Z,15.00
2023-02-26T16:24:27.592Z,11.50
2023-02-26T16:26:57.904Z,10.20
2023-02-26T16:29:29.101Z,9.00
2023-02-26T16:32:00.739Z,10.60
2023-02-26T16:34:39.834Z,11.20
2023-02-26T16:37:27.779Z,10.10
2023-02-26T16:39:59.529Z,17.30
2023-02-26T16:42:45.212Z,14.80
2023-02-26T16:45:35.523Z,16.70
2023-02-26T16:48:31.849Z,18.00
2023-02-26T16:51:03.194Z,16.20
2023-02-26T16:53:48.777Z,14.80
2023-02-26T16:56:19.621Z,13.30
2023-02-26T16:58:51.777Z,15.00
2023-02-26T17:01:20.569Z,19.30
2023-02-26T17:03:51.023Z,16.10
2023-02-26T17:06:20.707Z,14.50
2023-02-26T17:08:54.122Z,15.10
2023-02-26T17:11:33.393Z,19.10
2023-02-26T17:14:23.727Z,16.10
2023-02-26T17:16:56.819Z,16.20
2023-02-26T17:19:28.575Z,15.10
2023-02-26T17:21:58.108Z,20.30
2023-02-26T17:24:44.425Z,39.30
2023-02-26T17:27:42.890Z,56.90
2023-02-26T17:30:16.372Z,31.80
2023-02-26T17:32:45.861Z,34.40
2023-02-26T17:35:20.509Z,76.60
2023-02-26T17:37:49.290Z,31.30
2023-02-26T17:40:24.060Z,19.20
2023-02-26T17:42:52.912Z,39.50
2023-02-26T17:45:21.494Z,19.00
2023-02-26T17:47:50.590Z,27.20
2023-02-26T17:50:38.017Z,17.10
2023-02-26T17:53:06.819Z,16.00
2023-02-26T17:55:37.749Z,13.20
2023-02-26T17:58:24.255Z,12.80
2023-02-26T18:00:53.427Z,10.80
2023-02-26T18:03:22.049Z,15.20
2023-02-26T18:05:51.654Z,13.80
2023-02-26T18:08:25.382Z,17.00
2023-02-26T18:10:53.849Z,12.30
2023-02-26T18:13:23.857Z,12.00
2023-02-26T18:15:54.386Z,10.90
2023-02-26T18:18:23.277Z,16.70
2023-02-26T18:20:53.010Z,11.00
2023-02-26T18:23:21.476Z,10.70
2023-02-26T18:25:51.020Z,10.30
2023-02-26T18:28:24.400Z,10.70
2023-02-26T18:30:54.354Z,13.00
2023-02-26T18:33:25.225Z,14.60
2023-02-26T18:38:27.832Z,12.30
2023-02-26T18:40:59.071Z,12.90
2023-02-26T18:46:01.585Z,16.60
2023-02-26T18:48:30.970Z,15.50
2023-02-26T18:51:00.785Z,23.90
2023-02-26T18:53:31.215Z,17.90
2023-02-26T18:56:00.319Z,15.10
2023-02-26T18:58:29.611Z,11.80
2023-02-26T19:01:05.012Z,12.20
2023-02-26T19:03:34.066Z,14.40
2023-02-26T19:06:04.464Z,14.30
2023-02-26T19:08:36.749Z,15.00
2023-02-26T19:11:05.537Z,14.10
2023-02-26T19:13:38.223Z,12.90
2023-02-26T19:16:07.121Z,11.40
2023-02-26T19:18:35.595Z,11.70
2023-02-26T19:21:06.130Z,11.90
2023-02-26T19:23:37.070Z,14.40
2023-02-26T19:26:05.855Z,11.80
2023-02-26T19:28:34.553Z,13.20
2023-02-26T19:31:07.110Z,12.80
2023-02-26T19:36:08.289Z,13.80
2023-02-26T19:38:37.387Z,13.60
2023-02-26T19:41:05.968Z,12.40
2023-02-26T19:43:35.270Z,10.10
2023-02-26T19:46:04.163Z,11.40
2023-02-26T19:48:32.857Z,12.40
2023-02-26T19:51:03.279Z,10.60
2023-02-26T19:53:35.138Z,8.90
2023-02-26T19:56:05.733Z,9.40
2023-02-26T19:58:36.199Z,9.90
2023-02-26T20:01:05.240Z,9.60
2023-02-26T20:03:36.950Z,9.00
2023-02-26T20:06:08.481Z,8.40
2023-02-26T20:08:36.990Z,7.40
2023-02-26T20:11:05.678Z,8.20
2023-02-26T20:13:35.694Z,6.40
2023-02-26T20:16:05.885Z,6.50
2023-02-26T20:18:35.323Z,8.30
2023-02-26T20:21:09.048Z,6.70
2023-02-26T20:23:39.662Z,7.10
2023-02-26T20:26:11.838Z,8.60
2023-02-26T20:28:40.833Z,9.70
2023-02-26T20:31:09.991Z,8.60
2023-02-26T20:33:44.023Z,10.10
2023-02-26T20:36:12.928Z,8.10
2023-02-26T20:38:43.185Z,8.20
2023-02-26T20:41:11.735Z,9.00
2023-02-26T20:43:40.117Z,8.10
2023-02-26T20:46:09.829Z,9.10
2023-02-26T20:48:41.891Z,7.00
2023-02-26T20:51:12.270Z,9.80
2023-02-26T20:53:41.213Z,9.90
2023-02-26T20:56:12.665Z,10.10
2023-02-26T20:58:42.480Z,8.10
2023-02-26T21:01:11.721Z,8.50
2023-02-26T21:03:40.678Z,6.00
2023-02-26T21:06:10.904Z,5.20
2023-02-26T21:08:41.347Z,5.20
2023-02-26T21:11:10.313Z,5.50
2023-02-26T21:13:40.030Z,5.60
2023-02-26T21:16:08.770Z,4.90
2023-02-26T21:18:37.197Z,6.60
2023-02-26T21:21:07.320Z,5.20
2023-02-26T21:23:35.901Z,5.30
2023-02-26T21:26:04.495Z,5.50
2023-02-26T21:28:34.309Z,6.60
2023-02-26T21:31:03.310Z,5.30
2023-02-26T21:33:32.544Z,5.70
2023-02-26T21:36:01.494Z,7.40
2023-02-26T21:38:31.302Z,8.10
2023-02-26T21:40:59.887Z,8.40
2023-02-26T21:43:28.372Z,8.80
2023-02-26T21:45:56.755Z,10.50
2023-02-26T21:48:26.459Z,8.90
2023-02-26T21:50:56.888Z,9.20
2023-02-26T21:53:27.320Z,9.40
2023-02-26T21:55:57.130Z,9.00
2023-02-26T21:58:25.932Z,9.40
2023-02-26T22:00:54.571Z,11.80
2023-02-26T22:03:23.092Z,8.50
2023-02-26T22:05:52.903Z,9.80
2023-02-26T22:08:21.689Z,8.10
2023-02-26T22:10:50.174Z,9.20
2023-02-26T22:13:19.170Z,11.50
2023-02-26T22:15:47.544Z,10.20
2023-02-26T22:18:16.562Z,9.30
2023-02-26T22:20:45.023Z,9.50
2023-02-26T22:23:14.017Z,7.20
2023-02-26T22:25:42.401Z,9.30
2023-02-26T22:28:10.780Z,9.90
2023-02-26T22:30:39.888Z,6.40
2023-02-26T22:33:08.362Z,9.20
2023-02-26T22:35:37.458Z,9.40
2023-02-26T22:38:06.355Z,9.20
2023-02-26T22:40:34.732Z,11.00
2023-02-26T22:43:03.241Z,9.80
2023-02-26T22:45:33.338Z,10.30
2023-02-26T22:48:02.844Z,6.30
2023-02-26T22:50:31.327Z,9.00
2023-02-26T22:53:00.223Z,7.90
2023-02-26T22:55:28.819Z,7.30
2023-02-26T22:57:57.596Z,8.00
2023-02-26T23:00:25.976Z,8.30
2023-02-26T23:02:55.276Z,6.70
2023-02-26T23:05:23.658Z,7.00
2023-02-26T23:07:53.272Z,6.20
2023-02-26T23:10:22.262Z,7.70
2023-02-26T23:12:50.646Z,8.00
2023-02-26T23:15:19.023Z,7.70
2023-02-26T23:17:47.509Z,8.00
2023-02-26T23:20:16.911Z,7.70
2023-02-26T23:22:45.495Z,7.30
2023-02-26T23:25:16.751Z,8.60
2023-02-26T23:27:47.997Z,9.80
2023-02-26T23:30:22.013Z,8.50
2023-02-26T23:32:51.011Z,9.20
2023-02-26T23:35:23.073Z,8.90
2023-02-26T23:37:51.855Z,11.10
2023-02-26T23:40:20.253Z,10.70
2023-02-26T23:42:49.740Z,10.10
2023-02-26T23:45:18.120Z,7.60
2023-02-26T23:47:47.524Z,8.60
2023-02-26T23:50:21.332Z,8.60
2023-02-26T23:52:50.658Z,7.70
2023-02-26T23:55:19.219Z,7.80
2023-02-26T23:57:48.832Z,6.80
